Fairchild AFB, Washington
Current Conditions -  °F | °C
As of 9:06 AM on Thursday 30 Oct 2014 (Local Time) from KSKA Reporting Station
Light Rain Light Rain  
Wind Chill: 41°   Ceiling: 7500
Heat Index: 46°   Visibility: 10mi
Dew Point: 45°   Wind: 12mph
Humidity: 93%   Direction: 60°ENE
Pressure: 30.11"   Gusts: NA
Location:  47.61°N, 117.64°W
Report Text: KSKA 301606Z AUTO 06010KT 10SM -RA OVC075 08/07 A3011 RMK AO2
Loading
Personal Weather Stations






























Interactive Weather Map
Tropical Storm Tracking
New forecast layout! Learn more

10-Day Weather Forecast

Advertisements
Track Severe Weather on mobile